sensor_id;sensor_type;location;lat;lon;timestamp;pressure;altitude;pressure_sealevel;temperature;humidity
6565;BME280;3316;44.118;27.258;2023-07-30T00:01:24;100689.44;;;23.03;100.00
6565;BME280;3316;44.118;27.258;2023-07-30T00:03:49;100681.19;;;23.06;100.00
6565;BME280;3316;44.118;27.258;2023-07-30T00:06:15;100687.31;;;23.08;100.00
6565;BME280;3316;44.118;27.258;2023-07-30T00:08:40;100668.44;;;22.95;100.00
6565;BME280;3316;44.118;27.258;2023-07-30T00:11:06;100684.25;;;23.00;100.00
6565;BME280;3316;44.118;27.258;2023-07-30T00:13:31;100677.63;;;22.91;100.00
6565;BME280;3316;44.118;27.258;2023-07-30T00:15:57;100662.34;;;22.78;100.00
6565;BME280;3316;44.118;27.258;2023-07-30T00:18:22;100689.88;;;22.81;100.00
6565;BME280;3316;44.118;27.258;2023-07-30T00:20:47;100673.72;;;22.67;100.00
6565;BME280;3316;44.118;27.258;2023-07-30T00:23:13;100672.69;;;22.70;100.00
6565;BME280;3316;44.118;27.258;2023-07-30T00:25:38;100677.84;;;22.73;100.00
6565;BME280;3316;44.118;27.258;2023-07-30T00:28:04;100685.63;;;22.77;100.00
6565;BME280;3316;44.118;27.258;2023-07-30T00:30:29;100683.81;;;22.78;100.00
6565;BME280;3316;44.118;27.258;2023-07-30T00:32:55;100682.06;;;22.77;100.00
6565;BME280;3316;44.118;27.258;2023-07-30T00:35:20;100696.97;;;22.67;100.00
6565;BME280;3316;44.118;27.258;2023-07-30T00:37:46;100672.53;;;22.42;100.00
6565;BME280;3316;44.118;27.258;2023-07-30T00:40:11;100693.41;;;22.37;100.00
6565;BME280;3316;44.118;27.258;2023-07-30T00:42:37;100692.28;;;22.41;100.00
6565;BME280;3316;44.118;27.258;2023-07-30T00:45:03;100680.94;;;22.36;100.00
6565;BME280;3316;44.118;27.258;2023-07-30T00:47:30;100688.34;;;22.46;100.00
6565;BME280;3316;44.118;27.258;2023-07-30T00:49:55;100682.47;;;22.40;100.00
6565;BME280;3316;44.118;27.258;2023-07-30T00:52:22;100691.03;;;22.46;100.00
6565;BME280;3316;44.118;27.258;2023-07-30T00:54:49;100693.41;;;22.37;100.00
6565;BME280;3316;44.118;27.258;2023-07-30T00:57:16;100686.81;;;22.27;100.00
6565;BME280;3316;44.118;27.258;2023-07-30T00:59:43;100688.16;;;22.20;100.00
6565;BME280;3316;44.118;27.258;2023-07-30T01:02:09;100689.78;;;22.06;100.00
6565;BME280;3316;44.118;27.258;2023-07-30T01:04:36;100695.47;;;22.00;100.00
6565;BME280;3316;44.118;27.258;2023-07-30T01:07:03;100680.81;;;21.92;100.00
6565;BME280;3316;44.118;27.258;2023-07-30T01:09:28;100693.06;;;21.96;100.00
6565;BME280;3316;44.118;27.258;2023-07-30T01:11:54;100689.09;;;21.87;100.00
6565;BME280;3316;44.118;27.258;2023-07-30T01:14:21;100688.53;;;21.81;100.00
6565;BME280;3316;44.118;27.258;2023-07-30T01:16:48;100694.94;;;21.78;100.00
6565;BME280;3316;44.118;27.258;2023-07-30T01:19:14;100688.31;;;21.85;100.00
6565;BME280;3316;44.118;27.258;2023-07-30T01:21:39;100681.81;;;21.89;100.00
6565;BME280;3316;44.118;27.258;2023-07-30T01:24:05;100696.78;;;21.93;100.00
6565;BME280;3316;44.118;27.258;2023-07-30T01:26:37;100697.91;;;22.05;100.00
6565;BME280;3316;44.118;27.258;2023-07-30T01:29:07;100701.44;;;22.21;100.00
6565;BME280;3316;44.118;27.258;2023-07-30T01:31:34;100691.66;;;22.36;100.00
6565;BME280;3316;44.118;27.258;2023-07-30T01:34:03;100701.25;;;22.40;100.00
6565;BME280;3316;44.118;27.258;2023-07-30T01:36:29;100704.28;;;22.34;100.00
6565;BME280;3316;44.118;27.258;2023-07-30T01:38:57;100693.41;;;22.37;100.00
6565;BME280;3316;44.118;27.258;2023-07-30T01:41:23;100690.44;;;22.41;100.00
6565;BME280;3316;44.118;27.258;2023-07-30T01:43:49;100694.06;;;22.40;100.00
6565;BME280;3316;44.118;27.258;2023-07-30T01:46:15;100687.59;;;22.44;100.00
6565;BME280;3316;44.118;27.258;2023-07-30T01:48:40;100655.09;;;22.35;100.00
6565;BME280;3316;44.118;27.258;2023-07-30T01:51:06;100689.22;;;22.47;100.00
6565;BME280;3316;44.118;27.258;2023-07-30T01:53:31;100683.78;;;22.48;100.00
6565;BME280;3316;44.118;27.258;2023-07-30T01:55:56;100695.31;;;22.35;100.00
6565;BME280;3316;44.118;27.258;2023-07-30T01:58:22;100688.81;;;22.23;100.00
6565;BME280;3316;44.118;27.258;2023-07-30T02:00:47;100680.59;;;22.10;100.00
6565;BME280;3316;44.118;27.258;2023-07-30T02:03:13;100658.75;;;21.87;100.00
6565;BME280;3316;44.118;27.258;2023-07-30T02:05:38;100668.69;;;21.85;100.00
6565;BME280;3316;44.118;27.258;2023-07-30T02:08:03;100696.59;;;21.96;100.00
6565;BME280;3316;44.118;27.258;2023-07-30T02:10:29;100704.38;;;22.01;100.00
6565;BME280;3316;44.118;27.258;2023-07-30T02:12:54;100691.16;;;21.82;100.00
6565;BME280;3316;44.118;27.258;2023-07-30T02:15:20;100697.91;;;21.89;100.00
6565;BME280;3316;44.118;27.258;2023-07-30T02:17:45;100709.84;;;21.99;100.00
6565;BME280;3316;44.118;27.258;2023-07-30T02:20:11;100695.03;;;21.92;100.00
6565;BME280;3316;44.118;27.258;2023-07-30T02:22:36;100704.28;;;22.02;100.00
6565;BME280;3316;44.118;27.258;2023-07-30T02:25:01;100709.59;;;22.04;100.00
6565;BME280;3316;44.118;27.258;2023-07-30T02:27:27;100696.53;;;21.98;100.00
6565;BME280;3316;44.118;27.258;2023-07-30T02:29:52;100667.66;;;21.87;100.00
6565;BME280;3316;44.118;27.258;2023-07-30T02:32:18;100689.78;;;21.91;100.00
6565;BME280;3316;44.118;27.258;2023-07-30T02:34:43;100686.41;;;22.03;100.00
6565;BME280;3316;44.118;27.258;2023-07-30T02:37:08;100654.13;;;21.73;100.00
6565;BME280;3316;44.118;27.258;2023-07-30T02:39:34;100682.59;;;21.91;100.00
6565;BME280;3316;44.118;27.258;2023-07-30T02:41:59;100690.81;;;21.88;100.00
6565;BME280;3316;44.118;27.258;2023-07-30T02:44:25;100691.16;;;21.65;100.00
6565;BME280;3316;44.118;27.258;2023-07-30T02:46:50;100697.22;;;21.53;100.00
6565;BME280;3316;44.118;27.258;2023-07-30T02:49:15;100697.47;;;21.49;100.00
6565;BME280;3316;44.118;27.258;2023-07-30T02:51:41;100696.13;;;21.40;100.00
6565;BME280;3316;44.118;27.258;2023-07-30T02:54:08;100684.28;;;21.28;100.00
6565;BME280;3316;44.118;27.258;2023-07-30T02:56:34;100694.97;;;21.28;100.00
6565;BME280;3316;44.118;27.258;2023-07-30T02:59:00;100694.41;;;21.39;100.00
6565;BME280;3316;44.118;27.258;2023-07-30T03:01:26;100685.09;;;21.46;100.00
6565;BME280;3316;44.118;27.258;2023-07-30T03:03:51;100669.03;;;21.46;100.00
6565;BME280;3316;44.118;27.258;2023-07-30T03:06:16;100691.16;;;21.65;100.00
6565;BME280;3316;44.118;27.258;2023-07-30T03:08:45;100690.38;;;21.80;100.00
6565;BME280;3316;44.118;27.258;2023-07-30T03:11:10;100646.34;;;21.53;100.00
6565;BME280;3316;44.118;27.258;2023-07-30T03:13:36;100699.56;;;21.92;100.00
6565;BME280;3316;44.118;27.258;2023-07-30T03:16:01;100696.34;;;22.01;100.00
6565;BME280;3316;44.118;27.258;2023-07-30T03:18:27;100706.81;;;22.21;100.00
6565;BME280;3316;44.118;27.258;2023-07-30T03:20:58;100703.00;;;22.41;100.00
6565;BME280;3316;44.118;27.258;2023-07-30T03:23:24;100716.72;;;22.66;100.00
6565;BME280;3316;44.118;27.258;2023-07-30T03:25:49;100677.31;;;22.82;100.00
6565;BME280;3316;44.118;27.258;2023-07-30T03:28:15;100722.88;;;23.41;100.00
6565;BME280;3316;44.118;27.258;2023-07-30T03:30:40;100729.31;;;23.53;100.00
6565;BME280;3316;44.118;27.258;2023-07-30T03:33:05;100724.22;;;23.91;100.00
6565;BME280;3316;44.118;27.258;2023-07-30T03:35:31;100714.41;;;24.18;100.00
6565;BME280;3316;44.118;27.258;2023-07-30T03:37:57;100728.28;;;24.38;100.00
6565;BME280;3316;44.118;27.258;2023-07-30T03:40:22;100727.97;;;24.69;100.00
6565;BME280;3316;44.118;27.258;2023-07-30T03:42:49;100723.63;;;24.81;100.00
6565;BME280;3316;44.118;27.258;2023-07-30T03:45:14;100714.56;;;25.21;100.00
6565;BME280;3316;44.118;27.258;2023-07-30T03:47:39;100722.22;;;25.40;100.00
6565;BME280;3316;44.118;27.258;2023-07-30T03:50:05;100716.72;;;25.29;100.00
6565;BME280;3316;44.118;27.258;2023-07-30T03:52:31;100707.69;;;25.42;100.00
6565;BME280;3316;44.118;27.258;2023-07-30T03:54:56;100715.66;;;25.82;100.00
6565;BME280;3316;44.118;27.258;2023-07-30T03:57:21;100710.75;;;26.12;100.00
6565;BME280;3316;44.118;27.258;2023-07-30T03:59:47;100722.31;;;26.61;100.00
6565;BME280;3316;44.118;27.258;2023-07-30T04:02:12;100724.50;;;26.56;100.00
6565;BME280;3316;44.118;27.258;2023-07-30T04:04:41;100725.06;;;26.96;100.00
6565;BME280;3316;44.118;27.258;2023-07-30T04:07:09;100727.03;;;27.28;97.43
6565;BME280;3316;44.118;27.258;2023-07-30T04:09:34;100732.00;;;27.46;96.17
6565;BME280;3316;44.118;27.258;2023-07-30T04:11:59;100705.41;;;27.28;96.01
6565;BME280;3316;44.118;27.258;2023-07-30T04:14:25;100731.13;;;27.56;95.15
6565;BME280;3316;44.118;27.258;2023-07-30T04:16:50;100734.47;;;27.60;94.83
6565;BME280;3316;44.118;27.258;2023-07-30T04:19:16;100736.34;;;27.81;93.58
6565;BME280;3316;44.118;27.258;2023-07-30T04:21:41;100747.03;;;28.27;91.34
6565;BME280;3316;44.118;27.258;2023-07-30T04:24:06;100726.94;;;28.83;88.25
6565;BME280;3316;44.118;27.258;2023-07-30T04:26:32;100747.66;;;29.67;84.19
6565;BME280;3316;44.118;27.258;2023-07-30T04:28:57;100738.00;;;30.04;80.02
6565;BME280;3316;44.118;27.258;2023-07-30T04:31:23;100740.50;;;30.66;75.51
6565;BME280;3316;44.118;27.258;2023-07-30T04:33:48;100744.41;;;31.02;73.17
6565;BME280;3316;44.118;27.258;2023-07-30T04:36:14;100748.81;;;31.50;67.72
6565;BME280;3316;44.118;27.258;2023-07-30T04:38:39;100749.28;;;31.92;66.52
6565;BME280;3316;44.118;27.258;2023-07-30T04:41:04;100745.75;;;32.36;62.81
6565;BME280;3316;44.118;27.258;2023-07-30T04:43:30;100756.88;;;32.25;62.93
6565;BME280;3316;44.118;27.258;2023-07-30T04:45:55;100745.53;;;32.30;63.48
6565;BME280;3316;44.118;27.258;2023-07-30T04:48:21;100754.97;;;32.63;62.81
6565;BME280;3316;44.118;27.258;2023-07-30T04:50:46;100747.97;;;33.13;58.47
6565;BME280;3316;44.118;27.258;2023-07-30T04:53:11;100759.72;;;33.49;57.71
6565;BME280;3316;44.118;27.258;2023-07-30T04:55:37;100755.25;;;33.48;56.19
6565;BME280;3316;44.118;27.258;2023-07-30T04:58:02;100773.34;;;34.34;53.32
6565;BME280;3316;44.118;27.258;2023-07-30T05:00:28;100769.97;;;34.89;51.23
6565;BME280;3316;44.118;27.258;2023-07-30T05:02:54;100756.31;;;34.89;50.60
6565;BME280;3316;44.118;27.258;2023-07-30T05:05:19;100774.81;;;35.28;50.86
6565;BME280;3316;44.118;27.258;2023-07-30T05:07:45;100778.09;;;35.63;50.39
6565;BME280;3316;44.118;27.258;2023-07-30T05:10:10;100774.09;;;35.98;49.91
6565;BME280;3316;44.118;27.258;2023-07-30T05:12:36;100744.81;;;35.91;48.60
6565;BME280;3316;44.118;27.258;2023-07-30T05:15:03;100779.75;;;35.97;48.58
6565;BME280;3316;44.118;27.258;2023-07-30T05:17:29;100762.78;;;35.93;49.24
6565;BME280;3316;44.118;27.258;2023-07-30T05:19:55;100765.03;;;36.36;47.97
6565;BME280;3316;44.118;27.258;2023-07-30T05:22:21;100775.47;;;36.49;47.07
6565;BME280;3316;44.118;27.258;2023-07-30T05:24:46;100780.84;;;36.65;45.94
6565;BME280;3316;44.118;27.258;2023-07-30T05:27:12;100791.81;;;36.65;45.17
6565;BME280;3316;44.118;27.258;2023-07-30T05:29:37;100778.50;;;36.54;45.04
6565;BME280;3316;44.118;27.258;2023-07-30T05:32:03;100781.50;;;36.28;44.69
6565;BME280;3316;44.118;27.258;2023-07-30T05:34:29;100790.88;;;35.79;44.92
6565;BME280;3316;44.118;27.258;2023-07-30T05:36:54;100721.63;;;35.14;43.72
6565;BME280;3316;44.118;27.258;2023-07-30T05:39:19;100798.41;;;35.37;45.69
6565;BME280;3316;44.118;27.258;2023-07-30T05:41:45;100793.69;;;34.73;42.26
6565;BME280;3316;44.118;27.258;2023-07-30T05:44:10;100750.28;;;33.69;42.44
6565;BME280;3316;44.118;27.258;2023-07-30T05:46:36;100802.94;;;33.44;45.81
6565;BME280;3316;44.118;27.258;2023-07-30T05:49:01;100802.13;;;33.08;47.87
6565;BME280;3316;44.118;27.258;2023-07-30T05:51:26;100792.41;;;33.05;48.60
6565;BME280;3316;44.118;27.258;2023-07-30T05:53:52;100782.50;;;32.60;48.02
6565;BME280;3316;44.118;27.258;2023-07-30T05:56:17;100782.47;;;32.32;47.80
6565;BME280;3316;44.118;27.258;2023-07-30T05:58:44;100789.41;;;31.81;49.88
6565;BME280;3316;44.118;27.258;2023-07-30T06:01:09;100784.13;;;31.60;50.34
6565;BME280;3316;44.118;27.258;2023-07-30T06:03:37;100783.59;;;31.47;52.79
6565;BME280;3316;44.118;27.258;2023-07-30T06:06:02;100790.78;;;31.48;54.15
6565;BME280;3316;44.118;27.258;2023-07-30T06:08:28;100767.00;;;31.40;54.56
6565;BME280;3316;44.118;27.258;2023-07-30T06:10:55;100782.25;;;31.70;54.31
6565;BME280;3316;44.118;27.258;2023-07-30T06:13:20;100778.38;;;31.82;52.95
6565;BME280;3316;44.118;27.258;2023-07-30T06:15:46;100757.06;;;31.68;53.29
6565;BME280;3316;44.118;27.258;2023-07-30T06:18:12;100786.00;;;32.15;53.78
6565;BME280;3316;44.118;27.258;2023-07-30T06:20:37;100778.28;;;32.48;54.80
6565;BME280;3316;44.118;27.258;2023-07-30T06:23:02;100777.03;;;32.60;55.63
6565;BME280;3316;44.118;27.258;2023-07-30T06:25:29;100784.78;;;32.82;53.62
6565;BME280;3316;44.118;27.258;2023-07-30T06:27:55;100783.00;;;32.73;54.27
6565;BME280;3316;44.118;27.258;2023-07-30T06:30:23;100790.00;;;32.93;53.99
6565;BME280;3316;44.118;27.258;2023-07-30T06:32:49;100771.09;;;32.91;52.08
6565;BME280;3316;44.118;27.258;2023-07-30T06:35:14;100784.38;;;33.04;51.71
6565;BME280;3316;44.118;27.258;2023-07-30T06:37:40;100789.50;;;33.24;51.67
6565;BME280;3316;44.118;27.258;2023-07-30T06:40:06;100778.50;;;33.34;51.37
6565;BME280;3316;44.118;27.258;2023-07-30T06:42:32;100775.59;;;33.53;51.08
6565;BME280;3316;44.118;27.258;2023-07-30T06:44:57;100777.38;;;33.62;47.93
6565;BME280;3316;44.118;27.258;2023-07-30T06:47:22;100767.06;;;33.74;48.82
6565;BME280;3316;44.118;27.258;2023-07-30T06:49:48;100747.47;;;33.53;46.85
6565;BME280;3316;44.118;27.258;2023-07-30T06:52:14;100741.38;;;33.59;45.89
6565;BME280;3316;44.118;27.258;2023-07-30T06:54:39;100773.16;;;33.93;44.92
6565;BME280;3316;44.118;27.258;2023-07-30T06:57:05;100773.63;;;34.15;44.82
6565;BME280;3316;44.118;27.258;2023-07-30T06:59:30;100772.97;;;34.21;44.92
6565;BME280;3316;44.118;27.258;2023-07-30T07:01:55;100762.84;;;34.05;44.05
6565;BME280;3316;44.118;27.258;2023-07-30T07:04:21;100747.72;;;33.93;44.03
6565;BME280;3316;44.118;27.258;2023-07-30T07:06:46;100748.69;;;34.18;44.28
6565;BME280;3316;44.118;27.258;2023-07-30T07:09:12;100759.69;;;34.34;44.63
6565;BME280;3316;44.118;27.258;2023-07-30T07:11:37;100754.06;;;34.35;44.59
6565;BME280;3316;44.118;27.258;2023-07-30T07:14:02;100750.31;;;34.36;45.34
6565;BME280;3316;44.118;27.258;2023-07-30T07:16:28;100754.66;;;34.47;44.46
6565;BME280;3316;44.118;27.258;2023-07-30T07:18:53;100748.19;;;34.56;44.70
6565;BME280;3316;44.118;27.258;2023-07-30T07:21:19;100747.69;;;34.52;44.63
6565;BME280;3316;44.118;27.258;2023-07-30T07:23:45;100750.81;;;34.73;44.04
6565;BME280;3316;44.118;27.258;2023-07-30T07:26:11;100735.25;;;34.66;43.88
6565;BME280;3316;44.118;27.258;2023-07-30T07:28:36;100731.47;;;34.67;44.95
6565;BME280;3316;44.118;27.258;2023-07-30T07:31:02;100743.84;;;34.95;43.72
6565;BME280;3316;44.118;27.258;2023-07-30T07:33:27;100744.03;;;35.10;43.30
6565;BME280;3316;44.118;27.258;2023-07-30T07:36:03;100734.47;;;35.22;42.66
6565;BME280;3316;44.118;27.258;2023-07-30T07:38:29;100731.91;;;35.36;41.99
6565;BME280;3316;44.118;27.258;2023-07-30T07:40:55;100743.00;;;35.51;42.51
6565;BME280;3316;44.118;27.258;2023-07-30T07:43:20;100723.84;;;35.51;41.53
6565;BME280;3316;44.118;27.258;2023-07-30T07:45:45;100695.97;;;35.39;40.13
6565;BME280;3316;44.118;27.258;2023-07-30T07:48:11;100746.53;;;35.75;39.44
6565;BME280;3316;44.118;27.258;2023-07-30T07:50:36;100742.97;;;35.75;39.92
6565;BME280;3316;44.118;27.258;2023-07-30T07:53:02;100735.75;;;35.82;40.21
6565;BME280;3316;44.118;27.258;2023-07-30T07:55:27;100727.03;;;35.78;40.64
6565;BME280;3316;44.118;27.258;2023-07-30T07:57:53;100736.81;;;35.73;41.34
6565;BME280;3316;44.118;27.258;2023-07-30T08:00:18;100728.81;;;35.63;40.83
6565;BME280;3316;44.118;27.258;2023-07-30T08:02:44;100738.69;;;35.72;40.43
6565;BME280;3316;44.118;27.258;2023-07-30T08:05:10;100728.81;;;35.63;41.08
6565;BME280;3316;44.118;27.258;2023-07-30T08:07:35;100733.03;;;35.74;39.70
6565;BME280;3316;44.118;27.258;2023-07-30T08:10:01;100732.69;;;35.77;40.08
6565;BME280;3316;44.118;27.258;2023-07-30T08:12:26;100699.03;;;35.60;42.70
6565;BME280;3316;44.118;27.258;2023-07-30T08:14:51;100729.94;;;35.85;43.16
6565;BME280;3316;44.118;27.258;2023-07-30T08:17:18;100726.47;;;35.99;41.88
6565;BME280;3316;44.118;27.258;2023-07-30T08:19:44;100699.63;;;36.03;41.57
6565;BME280;3316;44.118;27.258;2023-07-30T08:22:09;100724.38;;;36.48;40.57
6565;BME280;3316;44.118;27.258;2023-07-30T08:24:35;100728.44;;;36.60;39.10
6565;BME280;3316;44.118;27.258;2023-07-30T08:27:00;100718.25;;;36.38;39.23
6565;BME280;3316;44.118;27.258;2023-07-30T08:29:26;100728.41;;;36.29;37.78
6565;BME280;3316;44.118;27.258;2023-07-30T08:31:51;100716.59;;;36.29;38.74
6565;BME280;3316;44.118;27.258;2023-07-30T08:34:17;100712.50;;;36.55;38.56
6565;BME280;3316;44.118;27.258;2023-07-30T08:36:42;100709.63;;;36.80;37.50
6565;BME280;3316;44.118;27.258;2023-07-30T08:39:08;100712.28;;;36.96;38.20
6565;BME280;3316;44.118;27.258;2023-07-30T08:41:33;100712.31;;;37.10;37.64
6565;BME280;3316;44.118;27.258;2023-07-30T08:43:59;100706.53;;;36.83;38.28
6565;BME280;3316;44.118;27.258;2023-07-30T08:46:24;100701.44;;;36.72;38.57
6565;BME280;3316;44.118;27.258;2023-07-30T08:48:50;100700.81;;;36.92;37.95
6565;BME280;3316;44.118;27.258;2023-07-30T08:51:15;100696.16;;;37.15;37.60
6565;BME280;3316;44.118;27.258;2023-07-30T08:53:42;100667.66;;;37.02;37.09
6565;BME280;3316;44.118;27.258;2023-07-30T08:56:08;100695.22;;;37.23;36.40
6565;BME280;3316;44.118;27.258;2023-07-30T08:58:34;100690.06;;;37.05;36.68
6565;BME280;3316;44.118;27.258;2023-07-30T09:01:01;100689.78;;;37.00;37.02
6565;BME280;3316;44.118;27.258;2023-07-30T09:03:32;100690.97;;;36.52;37.97
6565;BME280;3316;44.118;27.258;2023-07-30T09:06:00;100694.22;;;36.48;38.20
6565;BME280;3316;44.118;27.258;2023-07-30T09:08:25;100696.53;;;36.67;37.88
6565;BME280;3316;44.118;27.258;2023-07-30T09:10:51;100672.00;;;36.96;37.63
6565;BME280;3316;44.118;27.258;2023-07-30T09:13:22;100678.91;;;37.07;37.62
6565;BME280;3316;44.118;27.258;2023-07-30T09:15:52;100677.16;;;36.91;37.60
6565;BME280;3316;44.118;27.258;2023-07-30T09:18:18;100675.69;;;37.03;37.43
6565;BME280;3316;44.118;27.258;2023-07-30T09:20:46;100672.13;;;37.17;36.78
6565;BME280;3316;44.118;27.258;2023-07-30T09:23:12;100668.31;;;37.18;36.45
6565;BME280;3316;44.118;27.258;2023-07-30T09:25:38;100673.53;;;37.13;36.43
6565;BME280;3316;44.118;27.258;2023-07-30T09:28:05;100675.63;;;37.11;35.25
6565;BME280;3316;44.118;27.258;2023-07-30T09:30:31;100667.41;;;37.26;34.59
6565;BME280;3316;44.118;27.258;2023-07-30T09:32:58;100667.59;;;37.24;34.05
6565;BME280;3316;44.118;27.258;2023-07-30T09:35:25;100665.38;;;37.42;33.94
6565;BME280;3316;44.118;27.258;2023-07-30T09:38:01;100665.28;;;37.65;34.00
6565;BME280;3316;44.118;27.258;2023-07-30T09:40:34;100660.09;;;37.70;34.06
6565;BME280;3316;44.118;27.258;2023-07-30T09:43:00;100663.81;;;37.92;34.79
6565;BME280;3316;44.118;27.258;2023-07-30T09:45:27;100649.28;;;37.54;34.94
6565;BME280;3316;44.118;27.258;2023-07-30T09:47:54;100652.97;;;37.32;34.08
6565;BME280;3316;44.118;27.258;2023-07-30T09:50:21;100655.28;;;37.20;33.79
6565;BME280;3316;44.118;27.258;2023-07-30T09:52:47;100640.44;;;37.29;34.53
6565;BME280;3316;44.118;27.258;2023-07-30T09:55:12;100654.31;;;37.51;33.54
6565;BME280;3316;44.118;27.258;2023-07-30T09:57:38;100649.75;;;37.58;33.28
6565;BME280;3316;44.118;27.258;2023-07-30T10:00:05;100641.63;;;37.35;33.86
6565;BME280;3316;44.118;27.258;2023-07-30T10:02:32;100634.72;;;37.39;33.67
6565;BME280;3316;44.118;27.258;2023-07-30T10:05:03;100631.69;;;37.48;33.54
6565;BME280;3316;44.118;27.258;2023-07-30T10:07:34;100624.69;;;37.09;33.74
6565;BME280;3316;44.118;27.258;2023-07-30T10:10:01;100628.84;;;36.90;34.85
6565;BME280;3316;44.118;27.258;2023-07-30T10:12:31;100625.84;;;37.14;34.29
6565;BME280;3316;44.118;27.258;2023-07-30T10:14:57;100621.09;;;37.08;32.34
6565;BME280;3316;44.118;27.258;2023-07-30T10:17:23;100615.81;;;37.07;33.61
6565;BME280;3316;44.118;27.258;2023-07-30T10:19:49;100625.00;;;37.14;32.93
6565;BME280;3316;44.118;27.258;2023-07-30T10:25:00;100600.44;;;37.49;30.77
6565;BME280;3316;44.118;27.258;2023-07-30T10:27:35;100615.47;;;37.54;31.39
6565;BME280;3316;44.118;27.258;2023-07-30T10:30:11;100616.31;;;37.69;31.74
6565;BME280;3316;44.118;27.258;2023-07-30T10:32:42;100614.81;;;37.81;31.60
6565;BME280;3316;44.118;27.258;2023-07-30T10:35:08;100606.84;;;37.27;31.66
6565;BME280;3316;44.118;27.258;2023-07-30T10:37:34;100603.56;;;36.95;31.93
6565;BME280;3316;44.118;27.258;2023-07-30T10:39:59;100557.38;;;36.46;32.82
6565;BME280;3316;44.118;27.258;2023-07-30T10:42:33;100600.97;;;36.79;32.75
6565;BME280;3316;44.118;27.258;2023-07-30T10:44:59;100594.00;;;36.91;32.60
6565;BME280;3316;44.118;27.258;2023-07-30T10:47:27;100598.09;;;36.95;31.85
6565;BME280;3316;44.118;27.258;2023-07-30T10:49:52;100593.19;;;36.90;31.69
6565;BME280;3316;44.118;27.258;2023-07-30T10:52:23;100598.63;;;37.27;34.18
6565;BME280;3316;44.118;27.258;2023-07-30T10:54:49;100602.22;;;37.57;34.17
6565;BME280;3316;44.118;27.258;2023-07-30T10:57:14;100593.88;;;37.65;32.74
6565;BME280;3316;44.118;27.258;2023-07-30T10:59:41;100606.50;;;37.60;32.13
6565;BME280;3316;44.118;27.258;2023-07-30T11:02:06;100587.38;;;37.52;31.97
6565;BME280;3316;44.118;27.258;2023-07-30T11:04:34;100595.13;;;37.77;32.10
6565;BME280;3316;44.118;27.258;2023-07-30T11:07:00;100574.75;;;37.86;31.99
6565;BME280;3316;44.118;27.258;2023-07-30T11:09:27;100587.75;;;38.13;31.96
6565;BME280;3316;44.118;27.258;2023-07-30T11:11:54;100565.91;;;38.05;31.52
6565;BME280;3316;44.118;27.258;2023-07-30T11:14:21;100584.56;;;38.31;32.08
6565;BME280;3316;44.118;27.258;2023-07-30T11:16:53;100578.63;;;38.27;30.97
6565;BME280;3316;44.118;27.258;2023-07-30T11:19:19;100574.41;;;38.25;30.55
6565;BME280;3316;44.118;27.258;2023-07-30T11:21:49;100572.75;;;38.30;30.08
6565;BME280;3316;44.118;27.258;2023-07-30T11:24:15;100569.16;;;38.30;30.50
6565;BME280;3316;44.118;27.258;2023-07-30T11:26:41;100564.63;;;38.22;30.38
6565;BME280;3316;44.118;27.258;2023-07-30T11:29:15;100557.16;;;38.38;29.71
6565;BME280;3316;44.118;27.258;2023-07-30T11:31:42;100561.19;;;38.20;29.61
6565;BME280;3316;44.118;27.258;2023-07-30T11:34:08;100558.75;;;37.90;30.18
6565;BME280;3316;44.118;27.258;2023-07-30T11:36:34;100546.69;;;37.40;30.26
6565;BME280;3316;44.118;27.258;2023-07-30T11:38:59;100547.19;;;37.65;29.94
6565;BME280;3316;44.118;27.258;2023-07-30T11:41:25;100550.84;;;38.01;30.19
6565;BME280;3316;44.118;27.258;2023-07-30T11:43:51;100548.69;;;38.18;31.04
6565;BME280;3316;44.118;27.258;2023-07-30T11:46:17;100544.53;;;38.22;30.33
6565;BME280;3316;44.118;27.258;2023-07-30T11:48:47;100544.81;;;38.12;30.94
6565;BME280;3316;44.118;27.258;2023-07-30T11:51:20;100545.81;;;38.05;31.44
6565;BME280;3316;44.118;27.258;2023-07-30T11:58:48;100535.06;;;37.89;31.12
6565;BME280;3316;44.118;27.258;2023-07-30T12:01:15;100525.66;;;37.98;31.81
6565;BME280;3316;44.118;27.258;2023-07-30T12:03:41;100494.00;;;37.52;31.29
6565;BME280;3316;44.118;27.258;2023-07-30T12:06:07;100514.09;;;37.37;32.37
6565;BME280;3316;44.118;27.258;2023-07-30T12:08:34;100520.25;;;37.39;32.48
6565;BME280;3316;44.118;27.258;2023-07-30T12:11:05;100503.91;;;37.31;32.48
6565;BME280;3316;44.118;27.258;2023-07-30T12:13:30;100507.59;;;37.89;31.60
6565;BME280;3316;44.118;27.258;2023-07-30T12:15:57;100498.75;;;37.93;32.04
6565;BME280;3316;44.118;27.258;2023-07-30T12:18:23;100479.78;;;37.98;31.72
6565;BME280;3316;44.118;27.258;2023-07-30T12:20:50;100504.47;;;38.34;31.33
6565;BME280;3316;44.118;27.258;2023-07-30T12:23:16;100500.31;;;38.02;29.51
6565;BME280;3316;44.118;27.258;2023-07-30T12:25:42;100488.13;;;38.26;29.59
6565;BME280;3316;44.118;27.258;2023-07-30T12:28:07;100490.66;;;38.27;28.70
6565;BME280;3316;44.118;27.258;2023-07-30T12:30:33;100491.53;;;38.28;30.16
6565;BME280;3316;44.118;27.258;2023-07-30T12:32:58;100482.03;;;38.30;30.15
6565;BME280;3316;44.118;27.258;2023-07-30T12:35:24;100474.75;;;38.02;30.96
6565;BME280;3316;44.118;27.258;2023-07-30T12:37:49;100476.47;;;37.82;30.97
6565;BME280;3316;44.118;27.258;2023-07-30T12:40:16;100428.66;;;36.82;31.79
6565;BME280;3316;44.118;27.258;2023-07-30T12:42:41;100465.06;;;36.76;32.38
6565;BME280;3316;44.118;27.258;2023-07-30T12:45:07;100466.69;;;36.11;34.41
6565;BME280;3316;44.118;27.258;2023-07-30T12:47:33;100469.75;;;36.16;34.36
6565;BME280;3316;44.118;27.258;2023-07-30T12:50:01;100461.00;;;36.35;34.64
6565;BME280;3316;44.118;27.258;2023-07-30T12:52:26;100461.78;;;36.06;34.46
6565;BME280;3316;44.118;27.258;2023-07-30T12:54:52;100469.09;;;36.28;33.50
6565;BME280;3316;44.118;27.258;2023-07-30T12:57:17;100460.81;;;36.59;33.84
6565;BME280;3316;44.118;27.258;2023-07-30T12:59:43;100465.97;;;36.54;33.38